Time;durP1;ratioP1;P1;durP2;ratioP2;P2;SDS_P1;SDS_P2;PMS_P1;PMS_P2;Temp;Humidity;BMP_temperature;BMP_pressure;BME280_temperature;BME280_humidity;BME280_pressure;Samples;Min_cycle;Max_cycle;Signal;HPM_P1;HPM_P2
2021/10/01 00:02:13;;;;;;;5.47;1.17;;;;;;;-145.18;0.00;102943.50;5077457;28;20064;-67
2021/10/01 00:04:39;;;;;;;5.20;1.50;;;;;;;-145.18;0.00;102943.50;5069252;28;20028;-68
2021/10/01 00:07:04;;;;;;;3.60;1.20;;;;;;;-145.18;0.00;102943.50;5080198;28;20024;-68
2021/10/01 00:09:30;;;;;;;4.70;1.50;;;;;;;-145.18;0.00;102943.50;5072975;28;20177;-68
2021/10/01 00:11:56;;;;;;;4.80;1.20;;;;;;;-145.18;0.00;102943.50;5081817;28;20093;-68
2021/10/01 00:14:23;;;;;;;5.13;1.30;;;;;;;-145.18;0.00;102943.50;5073838;28;20032;-69
2021/10/01 00:16:50;;;;;;;2.73;1.30;;;;;;;-145.18;0.00;102943.50;5075736;28;20530;-68
2021/10/01 00:19:16;;;;;;;4.90;1.40;;;;;;;-145.18;0.00;102943.50;5076450;28;20422;-68
2021/10/01 00:21:42;;;;;;;2.93;1.10;;;;;;;-145.18;0.00;102943.50;5076213;28;20020;-68
2021/10/01 00:24:08;;;;;;;2.93;1.40;;;;;;;-145.18;0.00;102943.50;5076849;28;20203;-68
2021/10/01 00:26:36;;;;;;;5.87;1.10;;;;;;;-145.18;0.00;102943.50;5077126;28;20125;-68
2021/10/01 00:29:02;;;;;;;2.67;1.40;;;;;;;-145.18;0.00;102943.50;5078375;28;20060;-68
2021/10/01 00:31:27;;;;;;;3.93;1.40;;;;;;;-145.18;0.00;102943.50;5079084;28;20040;-68
2021/10/01 00:33:53;;;;;;;7.00;1.30;;;;;;;-145.18;0.00;102943.50;5079974;28;20105;-68
2021/10/01 00:36:18;;;;;;;3.40;1.20;;;;;;;-145.18;0.00;102943.50;5079927;28;20295;-69
2021/10/01 00:38:44;;;;;;;4.60;1.37;;;;;;;-145.18;0.00;102943.50;5078722;28;20032;-68
2021/10/01 00:41:09;;;;;;;3.03;1.20;;;;;;;-145.18;0.00;102943.50;5074572;28;20048;-68
2021/10/01 00:43:35;;;;;;;3.47;1.30;;;;;;;-145.18;0.00;102943.50;5070212;28;20389;-68
2021/10/01 00:46:00;;;;;;;7.53;1.53;;;;;;;-145.18;0.00;102943.50;5074493;28;20116;-68
2021/10/01 00:48:26;;;;;;;4.00;1.30;;;;;;;-145.18;0.00;102943.50;5080183;28;20122;-68
2021/10/01 00:50:51;;;;;;;3.80;1.07;;;;;;;-145.18;0.00;102943.50;5069083;28;20035;-68
2021/10/01 00:53:17;;;;;;;3.20;1.23;;;;;;;-145.18;0.00;102943.50;5072145;28;20233;-68
2021/10/01 00:55:44;;;;;;;4.37;1.33;;;;;;;-145.18;0.00;102943.50;5080094;28;20777;-69
2021/10/01 00:58:09;;;;;;;6.70;1.70;;;;;;;-145.18;0.00;102943.50;5077648;28;20024;-68
2021/10/01 01:00:41;;;;;;;4.53;1.33;;;;;;;-145.18;0.00;102943.50;5080489;28;20496;-71
2021/10/01 01:03:07;;;;;;;;;;;;;;;-145.18;0.00;102943.50;5075746;28;20204;-71
2021/10/01 01:06:09;;;;;;;1.93;1.00;;;;;;;-145.18;0.00;102943.50;5069460;28;20303;-71
2021/10/01 01:09:21;;;;;;;5.68;2.00;;;;;;;-145.18;0.00;102943.50;5062169;28;20028;-71
2021/10/01 01:12:34;;;;;;;2.70;1.20;;;;;;;-145.18;0.00;102943.50;4973167;28;20106;-72
2021/10/01 01:15:25;;;;;;;6.05;1.50;;;;;;;-145.18;0.00;102943.50;4892105;29;20035;-71
2021/10/01 01:18:07;;;;;;;3.30;1.10;;;;;;;-145.18;0.00;102943.50;4879726;29;20275;-72
2021/10/01 01:20:53;;;;;;;3.33;1.30;;;;;;;-145.18;0.00;102943.50;4882061;29;20561;-72
2021/10/01 01:23:48;;;;;;;4.03;1.00;;;;;;;-145.18;0.00;102943.50;4880090;29;20104;-71
2021/10/01 01:27:01;;;;;;;3.67;1.20;;;;;;;-145.18;0.00;102943.50;4884261;29;20332;-71
2021/10/01 01:30:06;;;;;;;5.47;1.50;;;;;;;-145.18;0.00;102943.50;4863084;29;20307;-71
2021/10/01 01:32:36;;;;;;;4.53;1.20;;;;;;;-145.18;0.00;102943.50;4854671;29;20602;-71
2021/10/01 01:35:18;;;;;;;4.13;1.10;;;;;;;-145.18;0.00;102943.50;4863433;29;20581;-72
2021/10/01 01:37:50;;;;;;;;;;;;;;;-145.18;0.00;102943.50;4870270;29;20052;-72
2021/10/01 01:40:18;;;;;;;3.50;1.13;;;;;;;-145.18;0.00;102943.50;4863257;29;20099;-71
2021/10/01 01:42:46;;;;;;;7.03;1.60;;;;;;;-145.18;0.00;102943.50;4865321;29;20364;-71
2021/10/01 01:45:13;;;;;;;3.57;1.77;;;;;;;-145.18;0.00;102943.50;4862728;29;20139;-71
2021/10/01 01:47:40;;;;;;;4.43;1.13;;;;;;;-145.18;0.00;102943.50;4902582;28;20051;-71
2021/10/01 01:50:07;;;;;;;2.83;1.13;;;;;;;-145.18;0.00;102943.50;5046882;28;20221;-71
2021/10/01 01:52:35;;;;;;;3.73;1.10;;;;;;;-145.18;0.00;102943.50;5054910;28;20102;-71
2021/10/01 01:55:01;;;;;;;2.90;1.20;;;;;;;-145.18;0.00;102943.50;5055595;28;20404;-71
2021/10/01 01:57:28;;;;;;;1.90;1.10;;;;;;;-145.18;0.00;102943.50;5055055;28;20196;-72
2021/10/01 01:59:55;;;;;;;2.60;1.10;;;;;;;-145.18;0.00;102943.50;5055561;28;20135;-72
2021/10/01 02:02:22;;;;;;;4.10;1.20;;;;;;;-145.18;0.00;102943.50;5055242;28;20299;-72
2021/10/01 02:04:48;;;;;;;5.13;1.23;;;;;;;-145.18;0.00;102943.50;5056343;28;20021;-72
2021/10/01 02:07:16;;;;;;;3.30;1.07;;;;;;;-145.18;0.00;102943.50;5073124;28;20525;-72
2021/10/01 02:09:42;;;;;;;2.93;1.00;;;;;;;-145.18;0.00;102943.50;5076807;28;20036;-72
2021/10/01 02:12:09;;;;;;;5.20;1.40;;;;;;;-145.18;0.00;102943.50;5076509;28;20035;-72
2021/10/01 02:14:43;;;;;;;3.20;1.30;;;;;;;-145.18;0.00;102943.50;5067308;28;20054;-72
2021/10/01 02:17:12;;;;;;;6.47;1.20;;;;;;;-145.18;0.00;102943.50;5074722;28;20027;-72
2021/10/01 02:19:39;;;;;;;2.00;0.93;;;;;;;-145.18;0.00;102943.50;5069193;28;20383;-72
2021/10/01 02:22:06;;;;;;;2.53;1.27;;;;;;;-145.18;0.00;102943.50;5077829;28;20016;-72
2021/10/01 02:24:35;;;;;;;4.50;1.20;;;;;;;-145.18;0.00;102943.50;5075768;28;20028;-72
2021/10/01 02:27:17;;;;;;;5.43;1.20;;;;;;;-145.18;0.00;102943.50;5064743;28;20495;-72
2021/10/01 02:29:51;;;;;;;2.80;1.20;;;;;;;-145.18;0.00;102943.50;5074243;28;20461;-72
2021/10/01 02:32:54;;;;;;;3.33;1.63;;;;;;;-145.18;0.00;102943.50;5075203;28;20077;-69
2021/10/01 02:35:19;;;;;;;6.25;1.70;;;;;;;-145.18;0.00;102943.50;5067359;28;20258;-69
2021/10/01 02:37:45;;;;;;;5.40;1.73;;;;;;;-145.18;0.00;102943.50;5072050;28;20039;-69
2021/10/01 02:40:11;;;;;;;3.60;1.30;;;;;;;-145.18;0.00;102943.50;5077505;28;20032;-69
2021/10/01 02:42:36;;;;;;;3.97;1.33;;;;;;;-145.18;0.00;102943.50;5078615;28;20499;-69
2021/10/01 02:45:04;;;;;;;8.03;1.33;;;;;;;-145.18;0.00;102943.50;5079227;28;20036;-72
2021/10/01 02:47:32;;;;;;;2.87;1.40;;;;;;;-145.18;0.00;102943.50;5069963;28;20497;-74
2021/10/01 02:50:00;;;;;;;5.23;1.27;;;;;;;-145.18;0.00;102943.50;5069478;28;20488;-73
2021/10/01 02:52:52;;;;;;;2.43;1.10;;;;;;;-145.18;0.00;102943.50;5077298;28;20078;-72
2021/10/01 02:55:29;;;;;;;;;;;;;;;-145.18;0.00;102943.50;5065059;28;20044;-72
2021/10/01 02:58:03;;;;;;;5.50;1.27;;;;;;;-145.18;0.00;102943.50;5073576;28;20024;-72
2021/10/01 03:00:29;;;;;;;4.87;1.60;;;;;;;-145.18;0.00;102943.50;5078973;28;20447;-72
2021/10/01 03:02:55;;;;;;;4.77;1.40;;;;;;;-145.18;0.00;102943.50;5078646;28;20135;-72
2021/10/01 03:05:23;;;;;;;4.00;1.00;;;;;;;-145.18;0.00;102943.50;5075243;28;20059;-73
2021/10/01 03:07:53;;;;;;;6.73;1.20;;;;;;;-145.18;0.00;102943.50;5075911;28;20606;-74
2021/10/01 03:10:18;;;;;;;4.03;1.10;;;;;;;-145.18;0.00;102943.50;5075835;28;20435;-73
2021/10/01 03:12:45;;;;;;;3.20;1.23;;;;;;;-145.18;0.00;102943.50;5079618;28;20211;-73
2021/10/01 03:15:12;;;;;;;4.03;1.20;;;;;;;-145.18;0.00;102943.50;5073389;28;20047;-74
2021/10/01 03:17:40;;;;;;;2.43;1.20;;;;;;;-145.18;0.00;102943.50;5082309;28;20411;-73
2021/10/01 03:20:11;;;;;;;6.00;1.30;;;;;;;-145.18;0.00;102943.50;5069092;28;20029;-73
2021/10/01 03:22:39;;;;;;;3.83;1.10;;;;;;;-145.18;0.00;102943.50;5072737;28;20448;-73
2021/10/01 03:25:06;;;;;;;4.03;1.10;;;;;;;-145.18;0.00;102943.50;5077778;28;20052;-72
2021/10/01 03:27:33;;;;;;;3.27;1.20;;;;;;;-145.18;0.00;102943.50;5070992;28;20024;-72
2021/10/01 03:30:01;;;;;;;2.13;1.00;;;;;;;-145.18;0.00;102943.50;5078687;28;20027;-72
2021/10/01 03:32:33;;;;;;;4.47;1.20;;;;;;;-145.18;0.00;102943.50;5082177;28;20299;-73
2021/10/01 03:35:01;;;;;;;5.60;1.50;;;;;;;-145.18;0.00;102943.50;5075908;28;20640;-72
2021/10/01 03:37:28;;;;;;;3.73;1.00;;;;;;;-145.18;0.00;102943.50;5068670;28;20082;-72
2021/10/01 03:40:04;;;;;;;2.93;1.07;;;;;;;-145.18;0.00;102943.50;5069439;28;20032;-72
2021/10/01 03:42:29;;;;;;;3.27;1.03;;;;;;;-145.18;0.00;102943.50;5081802;28;20020;-72
2021/10/01 03:44:55;;;;;;;4.80;1.20;;;;;;;-145.18;0.00;102943.50;5080532;28;20073;-72
2021/10/01 03:47:21;;;;;;;4.23;1.27;;;;;;;-145.18;0.00;102943.50;5082025;28;20026;-72
2021/10/01 03:49:47;;;;;;;3.47;1.00;;;;;;;-145.18;0.00;102943.50;5081020;28;20139;-72
2021/10/01 03:52:13;;;;;;;5.13;1.33;;;;;;;-145.18;0.00;102943.50;5081146;28;20024;-72
2021/10/01 03:54:41;;;;;;;5.60;1.30;;;;;;;-145.18;0.00;102943.50;5081575;28;20322;-73
2021/10/01 03:57:07;;;;;;;2.87;0.83;;;;;;;-145.18;0.00;102943.50;5081342;28;20048;-73
2021/10/01 03:59:33;;;;;;;2.27;1.27;;;;;;;-145.18;0.00;102943.50;5069924;28;20297;-72
2021/10/01 04:01:58;;;;;;;3.97;1.10;;;;;;;-145.18;0.00;102943.50;5076336;28;20187;-72
2021/10/01 04:04:24;;;;;;;3.30;0.90;;;;;;;-145.18;0.00;102943.50;5076068;28;20035;-72
2021/10/01 04:06:50;;;;;;;5.73;2.27;;;;;;;-145.18;0.00;102943.50;5079531;28;20271;-72
2021/10/01 04:09:15;;;;;;;3.00;1.00;;;;;;;-145.18;0.00;102943.50;5069248;28;20260;-72
2021/10/01 04:11:41;;;;;;;4.13;0.93;;;;;;;-145.18;0.00;102943.50;5080033;28;20039;-73
2021/10/01 04:14:07;;;;;;;5.57;1.27;;;;;;;-145.18;0.00;102943.50;5071634;28;20024;-72
2021/10/01 04:16:33;;;;;;;2.20;1.10;;;;;;;-145.18;0.00;102943.50;5081601;28;20195;-73
2021/10/01 04:18:58;;;;;;;3.20;1.10;;;;;;;-145.18;0.00;102943.50;5076006;28;20036;-73
2021/10/01 04:21:24;;;;;;;3.20;1.30;;;;;;;-145.18;0.00;102943.50;5081161;28;20074;-73
2021/10/01 04:23:50;;;;;;;3.53;1.20;;;;;;;-145.18;0.00;102943.50;5076274;28;20424;-73
2021/10/01 04:26:17;;;;;;;3.50;0.90;;;;;;;-145.18;0.00;102943.50;5080995;28;20036;-73
2021/10/01 04:28:43;;;;;;;4.50;1.13;;;;;;;-145.18;0.00;102943.50;5077435;28;20058;-73
2021/10/01 04:31:08;;;;;;;5.63;1.40;;;;;;;-145.18;0.00;102943.50;5076226;28;20046;-73
2021/10/01 04:33:35;;;;;;;3.80;1.10;;;;;;;-145.18;0.00;102943.50;5071948;28;20183;-73
2021/10/01 04:36:01;;;;;;;3.70;1.20;;;;;;;-145.18;0.00;102943.50;5081328;28;20020;-73
2021/10/01 04:38:28;;;;;;;2.20;0.80;;;;;;;-145.18;0.00;102943.50;5080946;28;20040;-72
2021/10/01 04:40:53;;;;;;;3.80;1.17;;;;;;;-145.18;0.00;102943.50;5077514;28;20044;-73
2021/10/01 04:43:19;;;;;;;4.20;1.00;;;;;;;-145.18;0.00;102943.50;5077630;28;20063;-73
2021/10/01 04:45:45;;;;;;;3.27;1.10;;;;;;;-145.18;0.00;102943.50;5082980;28;20043;-73
2021/10/01 04:48:10;;;;;;;1.90;0.80;;;;;;;-145.18;0.00;102943.50;5070649;28;20047;-73
2021/10/01 04:50:36;;;;;;;2.53;1.10;;;;;;;-145.18;0.00;102943.50;5076417;28;20112;-73
2021/10/01 04:53:02;;;;;;;2.40;0.90;;;;;;;-145.18;0.00;102943.50;5076346;28;20196;-73
2021/10/01 04:55:28;;;;;;;3.10;1.17;;;;;;;-145.18;0.00;102943.50;5076063;28;20535;-73
2021/10/01 04:57:54;;;;;;;3.03;0.90;;;;;;;-145.18;0.00;102943.50;5079217;28;20360;-73
2021/10/01 05:00:20;;;;;;;3.20;1.10;;;;;;;-145.18;0.00;102943.50;5079453;28;20272;-73
2021/10/01 05:02:46;;;;;;;5.23;0.90;;;;;;;-145.18;0.00;102943.50;5078838;28;20052;-73
2021/10/01 05:05:11;;;;;;;3.20;1.10;;;;;;;-145.18;0.00;102943.50;5078489;28;20035;-72
2021/10/01 05:07:37;;;;;;;3.10;1.00;;;;;;;-145.18;0.00;102943.50;5073766;28;20545;-72
2021/10/01 05:10:04;;;;;;;2.50;1.17;;;;;;;-145.18;0.00;102943.50;5080367;28;20272;-72
2021/10/01 05:12:30;;;;;;;2.97;1.07;;;;;;;-145.18;0.00;102943.50;5069792;28;20035;-73
2021/10/01 05:14:56;;;;;;;3.73;1.03;;;;;;;-145.18;0.00;102943.50;5067084;28;20032;-73
2021/10/01 05:17:23;;;;;;;3.53;0.90;;;;;;;-145.18;0.00;102943.50;5072748;28;20025;-73
2021/10/01 05:19:49;;;;;;;1.90;0.97;;;;;;;-145.18;0.00;102943.50;5065986;28;20257;-73
2021/10/01 05:22:16;;;;;;;11.13;1.43;;;;;;;-145.18;0.00;102943.50;5072856;28;20058;-73
2021/10/01 05:24:42;;;;;;;3.23;1.10;;;;;;;-145.18;0.00;102943.50;5070611;28;20472;-73
2021/10/01 05:27:07;;;;;;;3.50;1.43;;;;;;;-145.18;0.00;102943.50;5073228;28;20109;-73
2021/10/01 05:29:33;;;;;;;5.53;1.00;;;;;;;-145.18;0.00;102943.50;5070702;28;20278;-73
2021/10/01 05:31:59;;;;;;;5.33;1.47;;;;;;;-145.18;0.00;102943.50;5079069;28;20177;-74
2021/10/01 05:34:24;;;;;;;2.87;0.97;;;;;;;-145.18;0.00;102943.50;5063061;28;20047;-74
2021/10/01 05:36:50;;;;;;;2.73;0.93;;;;;;;-145.18;0.00;102943.50;5071507;28;20370;-73
2021/10/01 05:39:15;;;;;;;4.57;1.13;;;;;;;-145.18;0.00;102943.50;5072661;28;20044;-73
2021/10/01 05:41:41;;;;;;;4.93;1.13;;;;;;;-145.18;0.00;102943.50;5078669;28;20016;-73
2021/10/01 05:44:11;;;;;;;2.47;0.90;;;;;;;-145.18;0.00;102943.50;5076267;28;20028;-73
2021/10/01 05:46:42;;;;;;;4.17;1.10;;;;;;;-145.18;0.00;102943.50;5078176;28;20060;-74
2021/10/01 05:49:11;;;;;;;2.50;0.80;;;;;;;-145.18;0.00;102943.50;5080737;28;20028;-73
2021/10/01 05:51:47;;;;;;;3.57;1.00;;;;;;;-145.18;0.00;102943.50;5075904;28;20027;-74
2021/10/01 05:54:16;;;;;;;2.67;0.90;;;;;;;-145.18;0.00;102943.50;5076689;28;20039;-72
2021/10/01 05:56:42;;;;;;;4.20;0.90;;;;;;;-145.18;0.00;102943.50;5078738;28;20125;-72
2021/10/01 05:59:07;;;;;;;2.23;0.90;;;;;;;-145.18;0.00;102943.50;5069838;28;20039;-72
2021/10/01 06:01:36;;;;;;;3.57;1.00;;;;;;;-145.18;0.00;102943.50;5078385;28;20315;-72
2021/10/01 06:04:02;;;;;;;1.60;0.80;;;;;;;-145.18;0.00;102943.50;5072813;28;20547;-73
2021/10/01 06:06:28;;;;;;;1.83;0.87;;;;;;;-145.18;0.00;102943.50;5074341;28;20054;-72
2021/10/01 06:08:54;;;;;;;2.73;0.80;;;;;;;-145.18;0.00;102943.50;5069167;28;20031;-72
2021/10/01 06:11:20;;;;;;;5.90;1.20;;;;;;;-145.18;0.00;102943.50;5078690;28;20255;-72
2021/10/01 06:13:46;;;;;;;1.83;0.83;;;;;;;-145.18;0.00;102943.50;5071710;28;20085;-72
2021/10/01 06:16:11;;;;;;;1.80;1.03;;;;;;;-145.18;0.00;102943.50;5077984;28;20107;-72
2021/10/01 06:18:37;;;;;;;3.67;0.90;;;;;;;-145.18;0.00;102943.50;5072502;28;20028;-72
2021/10/01 06:21:03;;;;;;;2.67;0.90;;;;;;;-145.18;0.00;102943.50;5077179;28;20212;-72
2021/10/01 06:23:34;;;;;;;4.87;0.80;;;;;;;-145.18;0.00;102943.50;5069183;28;20043;-72
2021/10/01 06:26:04;;;;;;;2.27;0.90;;;;;;;-145.18;0.00;102943.50;5076896;28;20032;-72
2021/10/01 06:28:33;;;;;;;1.70;0.80;;;;;;;-145.18;0.00;102943.50;5068281;28;20028;-72
2021/10/01 06:31:01;;;;;;;5.47;0.90;;;;;;;-145.18;0.00;102943.50;5072696;28;20186;-72
2021/10/01 06:33:28;;;;;;;2.53;0.77;;;;;;;-145.18;0.00;102943.50;5072390;28;20282;-73
2021/10/01 06:35:54;;;;;;;2.47;0.73;;;;;;;-145.18;0.00;102943.50;5078886;28;20039;-72
2021/10/01 06:38:20;;;;;;;3.57;0.90;;;;;;;-145.18;0.00;102943.50;5075573;28;20199;-72
2021/10/01 06:40:45;;;;;;;2.00;0.70;;;;;;;-145.18;0.00;102943.50;5083127;28;20424;-72
2021/10/01 06:43:14;;;;;;;2.50;1.07;;;;;;;-145.18;0.00;102943.50;5077939;28;20289;-72
2021/10/01 06:45:40;;;;;;;2.40;0.90;;;;;;;-145.18;0.00;102943.50;5081875;28;20063;-73
2021/10/01 07:29:21;;;;;;;2.13;0.60;;;;;;;-145.18;0.00;102943.50;5056704;28;20044;-72
2021/10/01 08:19:19;;;;;;;2.37;0.80;;;;;;;-145.18;0.00;102943.50;5079806;28;20119;-72
2021/10/01 08:21:45;;;;;;;3.57;0.70;;;;;;;-145.18;0.00;102943.50;5082002;28;20028;-72
2021/10/01 08:24:10;;;;;;;2.73;0.80;;;;;;;-145.18;0.00;102943.50;5081189;28;20027;-72
2021/10/01 08:26:36;;;;;;;3.03;0.80;;;;;;;-145.18;0.00;102943.50;5081693;28;20040;-72
2021/10/01 08:29:02;;;;;;;2.03;0.77;;;;;;;-145.18;0.00;102943.50;5078556;28;20043;-72
2021/10/01 08:31:28;;;;;;;3.23;0.93;;;;;;;-145.18;0.00;102943.50;5081185;28;20141;-72
2021/10/01 08:33:55;;;;;;;2.87;0.67;;;;;;;-145.18;0.00;102943.50;5077660;28;20175;-73
2021/10/01 08:36:20;;;;;;;3.00;0.70;;;;;;;-145.18;0.00;102943.50;5081054;28;20020;-73
2021/10/01 08:38:46;;;;;;;3.73;0.73;;;;;;;-145.18;0.00;102943.50;5073607;28;20040;-73
2021/10/01 08:41:13;;;;;;;4.33;0.70;;;;;;;-145.18;0.00;102943.50;5080852;28;20259;-73
2021/10/01 08:43:42;;;;;;;2.73;0.70;;;;;;;-145.18;0.00;102943.50;5076535;28;20476;-72
2021/10/01 08:46:09;;;;;;;2.80;0.70;;;;;;;-145.18;0.00;102943.50;5081063;28;20025;-73
2021/10/01 08:48:36;;;;;;;2.03;1.00;;;;;;;-145.18;0.00;102943.50;5075514;28;20066;-73
2021/10/01 08:51:04;;;;;;;4.07;0.60;;;;;;;-145.18;0.00;102943.50;5080648;28;20058;-72
2021/10/01 08:53:31;;;;;;;1.83;0.70;;;;;;;-145.18;0.00;102943.50;5081043;28;20175;-73
2021/10/01 08:55:58;;;;;;;2.37;0.60;;;;;;;-145.18;0.00;102943.50;5080877;28;20446;-72
2021/10/01 08:58:27;;;;;;;2.90;0.70;;;;;;;-145.18;0.00;102943.50;5071172;28;20050;-74
2021/10/01 09:00:53;;;;;;;5.77;1.33;;;;;;;-145.18;0.00;102943.50;5078958;28;20081;-73
2021/10/01 09:03:19;;;;;;;2.93;0.60;;;;;;;-145.18;0.00;102943.50;5074237;28;20048;-74
2021/10/01 09:05:45;;;;;;;2.90;0.70;;;;;;;-145.18;0.00;102943.50;5074304;28;20165;-73
2021/10/01 09:08:16;;;;;;;2.13;0.60;;;;;;;-145.18;0.00;102943.50;5075649;28;20036;-73
2021/10/01 09:10:54;;;;;;;2.90;0.80;;;;;;;-145.18;0.00;102943.50;5074924;28;20050;-73
2021/10/01 09:13:21;;;;;;;1.33;0.60;;;;;;;-145.18;0.00;102943.50;5073599;28;20042;-73
2021/10/01 09:15:46;;;;;;;2.03;0.70;;;;;;;-145.18;0.00;102943.50;5076298;28;20329;-73
2021/10/01 09:18:12;;;;;;;1.47;0.60;;;;;;;-145.18;0.00;102943.50;5075147;28;20462;-73
2021/10/01 09:20:38;;;;;;;3.40;1.20;;;;;;;-145.18;0.00;102943.50;5075527;28;20427;-73
2021/10/01 09:25:43;;;;;;;1.87;0.70;;;;;;;-145.18;0.00;102943.50;5079621;28;20042;-73
2021/10/01 09:28:12;;;;;;;1.67;0.70;;;;;;;-145.18;0.00;102943.50;5075013;28;20115;-73
2021/10/01 09:30:49;;;;;;;3.90;0.83;;;;;;;-145.18;0.00;102943.50;5078501;28;20038;-73
2021/10/01 09:33:19;;;;;;;4.20;1.00;;;;;;;-145.18;0.00;102943.50;5079294;28;20031;-73
2021/10/01 09:35:46;;;;;;;3.60;0.80;;;;;;;-145.18;0.00;102943.50;5080278;28;20032;-73
2021/10/01 09:38:18;;;;;;;2.33;0.63;;;;;;;-145.18;0.00;102943.50;5075459;28;20024;-73
2021/10/01 09:41:05;;;;;;;2.10;0.70;;;;;;;-145.18;0.00;102943.50;5078884;28;20039;-73
2021/10/01 09:43:32;;;;;;;3.03;0.60;;;;;;;-145.18;0.00;102943.50;5077098;28;20032;-73
2021/10/01 09:46:07;;;;;;;3.70;0.70;;;;;;;-145.18;0.00;102943.50;5080263;28;20093;-73
2021/10/01 09:48:36;;;;;;;1.60;0.70;;;;;;;-145.18;0.00;102943.50;5074645;28;20052;-73
2021/10/01 09:51:17;;;;;;;1.73;0.73;;;;;;;-145.18;0.00;102943.50;5079915;28;20040;-73
2021/10/01 09:53:48;;;;;;;5.37;0.80;;;;;;;-145.18;0.00;102943.50;5078397;28;20582;-73
2021/10/01 09:56:26;;;;;;;1.83;0.50;;;;;;;-145.18;0.00;102943.50;5080152;28;20285;-73
2021/10/01 09:59:25;;;;;;;5.07;0.70;;;;;;;-145.18;0.00;102943.50;5075699;28;20136;-73
2021/10/01 10:02:17;;;;;;;3.03;0.73;;;;;;;-145.18;0.00;102943.50;5044593;28;20196;-73
2021/10/01 10:04:52;;;;;;;2.78;0.70;;;;;;;-145.18;0.00;102943.50;5077307;28;20075;-73
2021/10/01 10:07:21;;;;;;;4.30;0.80;;;;;;;-145.18;0.00;102943.50;5079714;28;20071;-73
2021/10/01 10:10:08;;;;;;;3.77;0.90;;;;;;;-145.18;0.00;102943.50;5079603;28;20312;-73
2021/10/01 10:12:42;;;;;;;3.93;0.70;;;;;;;-145.18;0.00;102943.50;5079756;28;20032;-73
2021/10/01 10:15:13;;;;;;;5.23;0.77;;;;;;;-145.18;0.00;102943.50;5066460;28;20531;-74
2021/10/01 10:17:47;;;;;;;2.80;0.80;;;;;;;-145.18;0.00;102943.50;5080036;28;20496;-74
2021/10/01 10:20:16;;;;;;;3.17;1.00;;;;;;;-145.18;0.00;102943.50;5079552;28;20067;-74
2021/10/01 10:22:41;;;;;;;2.57;0.70;;;;;;;-145.18;0.00;102943.50;5079436;28;20606;-74
2021/10/01 10:25:08;;;;;;;1.50;0.50;;;;;;;-145.18;0.00;102943.50;5067777;28;20111;-74
2021/10/01 10:27:33;;;;;;;2.70;0.80;;;;;;;-145.18;0.00;102943.50;5079662;28;20461;-74
2021/10/01 10:29:59;;;;;;;4.67;0.83;;;;;;;-145.18;0.00;102943.50;5067843;28;20280;-74
2021/10/01 10:32:31;;;;;;;5.10;0.60;;;;;;;-145.18;0.00;102943.50;5079388;28;20031;-71
2021/10/01 10:34:59;;;;;;;1.60;0.50;;;;;;;-145.18;0.00;102943.50;5077660;28;20038;-72
2021/10/01 10:37:57;;;;;;;4.27;1.20;;;;;;;-145.18;0.00;102943.50;5080138;28;20055;-72
2021/10/01 10:40:22;;;;;;;3.57;0.70;;;;;;;-145.18;0.00;102943.50;5017114;28;20204;-72
2021/10/01 10:42:50;;;;;;;3.97;0.67;;;;;;;-145.18;0.00;102943.50;5015224;28;20025;-72
2021/10/01 10:45:24;;;;;;;2.40;0.77;;;;;;;-145.18;0.00;102943.50;5018001;28;20481;-73
2021/10/01 10:48:11;;;;;;;2.17;0.70;;;;;;;-145.18;0.00;102943.50;5024075;28;20033;-72
2021/10/01 10:50:45;;;;;;;3.07;0.77;;;;;;;-145.18;0.00;102943.50;5015753;28;20042;-72
2021/10/01 10:53:14;;;;;;;3.33;0.70;;;;;;;-145.18;0.00;102943.50;5013671;28;20369;-72
2021/10/01 10:55:55;;;;;;;2.53;0.87;;;;;;;-145.18;0.00;102943.50;5016306;28;20284;-73
2021/10/01 10:58:42;;;;;;;1.87;0.60;;;;;;;-145.18;0.00;102943.50;5016158;28;20029;-72
2021/10/01 11:01:34;;;;;;;2.20;0.90;;;;;;;-145.18;0.00;102943.50;5016463;28;20351;-73
2021/10/01 11:04:19;;;;;;;3.65;0.63;;;;;;;-145.18;0.00;102943.50;5013355;28;20129;-73
2021/10/01 11:06:45;;;;;;;4.13;0.67;;;;;;;-145.18;0.00;102943.50;5016486;28;20528;-73
2021/10/01 11:09:30;;;;;;;2.63;0.60;;;;;;;-145.18;0.00;102943.50;5015061;28;20068;-73
2021/10/01 11:11:58;;;;;;;3.20;0.70;;;;;;;-145.18;0.00;102943.50;5017722;28;20026;-73
2021/10/01 11:14:25;;;;;;;4.37;1.27;;;;;;;-145.18;0.00;102943.50;5016162;28;20033;-73
2021/10/01 11:17:16;;;;;;;2.73;0.70;;;;;;;-145.18;0.00;102943.50;5069743;28;20583;-73
2021/10/01 11:19:48;;;;;;;2.57;0.57;;;;;;;-145.18;0.00;102943.50;5064521;28;20511;-73
2021/10/01 11:22:42;;;;;;;6.10;0.80;;;;;;;-145.18;0.00;102943.50;5072290;28;20626;-73
2021/10/01 11:25:17;;;;;;;3.60;0.80;;;;;;;-145.18;0.00;102943.50;5082442;28;20035;-73
2021/10/01 11:27:53;;;;;;;3.13;0.60;;;;;;;-145.18;0.00;102943.50;5081637;28;20043;-73
2021/10/01 11:30:19;;;;;;;2.83;0.67;;;;;;;-145.18;0.00;102943.50;5080111;28;20043;-74
2021/10/01 11:32:45;;;;;;;4.67;0.70;;;;;;;-145.18;0.00;102943.50;5081814;28;20024;-74
2021/10/01 11:35:11;;;;;;;6.37;0.77;;;;;;;-145.18;0.00;102943.50;5078039;28;20027;-74
2021/10/01 11:37:46;;;;;;;2.38;0.60;;;;;;;-145.18;0.00;102943.50;5083065;28;20028;-74
2021/10/01 11:40:27;;;;;;;3.77;0.77;;;;;;;-145.18;0.00;102943.50;5078508;28;20119;-74
2021/10/01 11:42:55;;;;;;;3.70;0.70;;;;;;;-145.18;0.00;102943.50;5081256;28;20033;-74
2021/10/01 11:45:23;;;;;;;5.20;1.33;;;;;;;-145.18;0.00;102943.50;5079620;28;20024;-74
2021/10/01 11:48:09;;;;;;;2.55;0.70;;;;;;;-145.18;0.00;102943.50;5082468;28;20464;-74
2021/10/01 11:50:44;;;;;;;4.40;1.02;;;;;;;-145.18;0.00;102943.50;5078550;28;20107;-73
2021/10/01 11:53:25;;;;;;;4.47;0.75;;;;;;;-145.18;0.00;102943.50;5083715;28;20020;-74
2021/10/01 11:56:06;;;;;;;2.08;0.50;;;;;;;-145.18;0.00;102943.50;5082779;28;20512;-73
2021/10/01 11:58:33;;;;;;;3.33;1.00;;;;;;;-145.18;0.00;102943.50;5079147;28;20282;-74
2021/10/01 12:01:15;;;;;;;4.10;0.63;;;;;;;-145.18;0.00;102943.50;5080700;28;20031;-73
2021/10/01 12:03:52;;;;;;;3.17;0.73;;;;;;;-145.18;0.00;102943.50;5074187;28;20050;-73
2021/10/01 12:06:22;;;;;;;3.85;0.60;;;;;;;-145.18;0.00;102943.50;5076543;28;20077;-73
2021/10/01 12:08:59;;;;;;;2.90;0.80;;;;;;;-145.18;0.00;102943.50;5076205;28;20021;-74
2021/10/01 12:11:34;;;;;;;4.13;0.70;;;;;;;-145.18;0.00;102943.50;5082200;28;20204;-74
2021/10/01 12:14:14;;;;;;;4.17;0.70;;;;;;;-145.18;0.00;102943.50;5079072;28;20028;-73
2021/10/01 12:16:41;;;;;;;4.22;0.73;;;;;;;-145.18;0.00;102943.50;5079466;28;20050;-73
2021/10/01 12:19:08;;;;;;;1.40;0.80;;;;;;;-145.18;0.00;102943.50;5078964;28;20036;-73
2021/10/01 12:21:35;;;;;;;3.37;0.90;;;;;;;-145.18;0.00;102943.50;5081296;28;20072;-73
2021/10/01 12:24:10;;;;;;;4.43;1.00;;;;;;;-145.18;0.00;102943.50;5080631;28;20244;-73
2021/10/01 12:26:44;;;;;;;1.93;0.67;;;;;;;-145.18;0.00;102943.50;5079706;28;20028;-73
2021/10/01 12:29:30;;;;;;;2.47;0.83;;;;;;;-145.18;0.00;102943.50;5077339;28;20028;-73
2021/10/01 12:31:58;;;;;;;2.50;0.80;;;;;;;-145.18;0.00;102943.50;5077114;28;20049;-73
2021/10/01 12:34:35;;;;;;;3.60;0.67;;;;;;;-145.18;0.00;102943.50;5073669;28;20091;-73
2021/10/01 12:37:04;;;;;;;4.67;0.67;;;;;;;-145.18;0.00;102943.50;5071872;28;20492;-73
2021/10/01 12:39:31;;;;;;;1.45;0.60;;;;;;;-145.18;0.00;102943.50;5080640;28;20039;-73
2021/10/01 12:42:02;;;;;;;4.30;0.70;;;;;;;-145.18;0.00;102943.50;5081553;28;20069;-73
2021/10/01 12:44:28;;;;;;;2.45;0.70;;;;;;;-145.18;0.00;102943.50;5079851;28;20116;-73
2021/10/01 12:46:55;;;;;;;4.35;0.60;;;;;;;-145.18;0.00;102943.50;5080275;28;20247;-73
2021/10/01 12:49:40;;;;;;;2.92;0.80;;;;;;;-145.18;0.00;102943.50;5077973;28;20116;-74
2021/10/01 12:52:20;;;;;;;2.88;0.60;;;;;;;-145.18;0.00;102943.50;5073000;28;20107;-73
2021/10/01 12:55:09;;;;;;;6.30;1.05;;;;;;;-145.18;0.00;102943.50;5067246;28;20024;-73
2021/10/01 12:57:43;;;;;;;2.38;0.77;;;;;;;-145.18;0.00;102943.50;5082139;28;20026;-73
2021/10/01 13:00:33;;;;;;;3.80;1.08;;;;;;;-145.18;0.00;102943.50;5080279;28;20107;-73
2021/10/01 13:03:08;;;;;;;3.55;0.80;;;;;;;-145.18;0.00;102943.50;5072828;28;20083;-73
2021/10/01 13:05:44;;;;;;;2.85;0.70;;;;;;;-145.18;0.00;102943.50;5073240;28;20136;-73